Time;durP1;ratioP1;P1;durP2;ratioP2;P2;SDS_P1;SDS_P2;PMS_P1;PMS_P2;Temp;Humidity;BMP_temperature;BMP_pressure;BME280_temperature;BME280_humidity;BME280_pressure;Samples;Min_cycle;Max_cycle;Signal;HPM_P1;HPM_P2
2021/05/22 00:00:01;;;;;;;1.20;0.93;;;12.20;99.90;;;;;;5035209;28;20478;-59
2021/05/22 00:02:27;;;;;;;1.50;0.93;;;12.40;99.90;;;;;;5035963;28;20184;-58
2021/05/22 00:04:52;;;;;;;1.70;0.80;;;12.40;99.90;;;;;;5035588;28;20433;-58
2021/05/22 00:07:18;;;;;;;1.13;1.00;;;12.40;99.90;;;;;;5036143;28;20624;-58
2021/05/22 00:09:45;;;;;;;0.93;0.80;;;12.40;99.90;;;;;;5033343;28;20516;-58
2021/05/22 00:12:11;;;;;;;1.90;0.93;;;12.30;99.90;;;;;;5035572;28;20175;-57
2021/05/22 00:14:37;;;;;;;1.67;1.07;;;12.20;99.90;;;;;;5041884;28;20475;-59
2021/05/22 00:17:02;;;;;;;1.30;0.90;;;12.20;99.90;;;;;;5035555;28;20254;-59
2021/05/22 00:19:28;;;;;;;1.83;0.70;;;12.20;99.90;;;;;;5035474;28;20552;-60
2021/05/22 00:21:53;;;;;;;1.00;0.87;;;12.20;99.90;;;;;;5035710;28;20166;-56
2021/05/22 00:24:19;;;;;;;1.27;0.80;;;12.20;99.90;;;;;;5035533;28;20644;-53
2021/05/22 00:26:45;;;;;;;1.40;1.20;;;12.10;99.90;;;;;;5035380;28;20167;-55
2021/05/22 00:29:10;;;;;;;1.17;0.80;;;12.10;99.90;;;;;;5034337;28;20652;-60
2021/05/22 00:31:36;;;;;;;2.97;1.00;;;12.10;99.90;;;;;;5035282;28;20178;-57
2021/05/22 00:34:02;;;;;;;4.10;0.97;;;12.00;99.90;;;;;;5035643;28;20640;-58
2021/05/22 00:36:28;;;;;;;1.77;0.70;;;12.00;99.90;;;;;;5035665;28;20171;-58
2021/05/22 00:38:53;;;;;;;2.30;0.97;;;12.00;99.90;;;;;;5035132;28;20197;-57
2021/05/22 00:41:19;;;;;;;1.80;0.90;;;12.10;99.90;;;;;;5035059;28;20202;-59
2021/05/22 00:43:45;;;;;;;2.70;0.80;;;12.00;99.90;;;;;;5035460;28;20636;-58
2021/05/22 00:46:10;;;;;;;2.50;0.90;;;11.90;99.90;;;;;;5034959;28;20181;-58
2021/05/22 00:48:36;;;;;;;1.53;0.93;;;11.90;99.90;;;;;;5030368;28;20194;-60
2021/05/22 00:51:03;;;;;;;1.17;0.70;;;11.70;99.90;;;;;;5035341;28;20186;-59
2021/05/22 00:53:29;;;;;;;3.20;1.00;;;11.90;99.90;;;;;;5035231;28;20172;-59
2021/05/22 00:55:57;;;;;;;2.93;0.80;;;11.90;99.90;;;;;;5034902;28;20405;-59
2021/05/22 00:58:23;;;;;;;1.30;0.70;;;11.90;99.90;;;;;;5034359;28;20873;-59
2021/05/22 01:00:50;;;;;;;1.60;1.10;;;11.80;99.90;;;;;;5034560;28;20527;-58
2021/05/22 01:03:24;;;;;;;2.53;1.07;;;11.70;99.90;;;;;;5035052;28;20286;-58
2021/05/22 01:05:49;;;;;;;1.77;0.70;;;11.70;99.90;;;;;;5043564;28;20444;-57
2021/05/22 01:08:20;;;;;;;1.17;0.77;;;11.70;99.90;;;;;;5041355;28;20792;-58
2021/05/22 01:10:58;;;;;;;1.93;0.90;;;11.60;99.90;;;;;;5034933;28;20178;-58
2021/05/22 01:13:25;;;;;;;1.53;0.67;;;11.60;99.90;;;;;;5034023;28;20398;-57
2021/05/22 01:15:54;;;;;;;1.27;0.87;;;11.60;99.90;;;;;;5034170;28;20773;-57
2021/05/22 01:18:19;;;;;;;1.73;0.90;;;11.70;99.90;;;;;;5034165;28;20476;-58
2021/05/22 01:20:54;;;;;;;2.90;0.90;;;11.60;99.90;;;;;;5034415;28;20449;-58
2021/05/22 01:23:27;;;;;;;0.80;0.70;;;11.60;99.90;;;;;;5034828;28;20178;-58
2021/05/22 01:25:54;;;;;;;1.00;0.80;;;11.70;99.90;;;;;;5034586;28;20390;-58
2021/05/22 01:28:20;;;;;;;3.37;0.90;;;11.60;99.90;;;;;;5049932;23;20473;-57
2021/05/22 01:30:47;;;;;;;1.20;0.90;;;11.60;99.90;;;;;;5049900;28;20433;-62
2021/05/22 01:33:13;;;;;;;1.17;0.80;;;11.70;99.90;;;;;;5054237;28;20162;-62
2021/05/22 01:35:40;;;;;;;1.50;1.00;;;11.80;99.90;;;;;;5054746;28;20493;-62
2021/05/22 01:38:07;;;;;;;1.43;0.90;;;11.70;99.90;;;;;;5054433;28;20203;-62
2021/05/22 01:40:33;;;;;;;2.00;0.80;;;11.60;99.90;;;;;;5054368;28;20445;-61
2021/05/22 01:42:59;;;;;;;1.53;0.90;;;11.70;99.90;;;;;;5054054;28;20414;-61
2021/05/22 01:45:27;;;;;;;1.77;0.90;;;11.90;99.90;;;;;;5054179;28;20194;-61
2021/05/22 01:47:55;;;;;;;1.80;1.13;;;11.80;99.90;;;;;;5053947;28;20196;-61
2021/05/22 01:50:22;;;;;;;1.60;0.97;;;11.80;99.90;;;;;;5053996;28;20408;-60
2021/05/22 01:52:53;;;;;;;2.13;0.83;;;11.80;99.90;;;;;;5054192;28;20915;-61
2021/05/22 01:55:20;;;;;;;1.20;0.83;;;11.90;99.90;;;;;;5054234;28;20394;-61
2021/05/22 01:57:46;;;;;;;0.93;0.87;;;12.00;99.90;;;;;;5053730;28;20409;-61
2021/05/22 02:00:13;;;;;;;2.10;0.93;;;12.20;99.90;;;;;;5052085;28;20441;-61
2021/05/22 02:03:10;;;;;;;2.63;1.00;;;12.20;99.90;;;;;;5053678;28;20174;-61
2021/05/22 02:05:37;;;;;;;2.77;0.80;;;12.20;99.90;;;;;;5035143;28;20455;-61
2021/05/22 02:08:07;;;;;;;3.10;1.20;;;12.30;99.90;;;;;;5053856;28;20501;-61
2021/05/22 02:10:33;;;;;;;1.20;0.87;;;12.40;99.90;;;;;;5050735;28;20444;-61
2021/05/22 02:12:59;;;;;;;1.10;0.80;;;12.40;99.90;;;;;;5065483;28;20462;-61
2021/05/22 02:15:27;;;;;;;1.23;1.00;;;12.40;99.90;;;;;;5071727;28;20408;-61
2021/05/22 02:17:55;;;;;;;2.90;1.20;;;12.40;99.90;;;;;;5053970;28;20498;-60
2021/05/22 02:20:22;;;;;;;1.97;1.23;;;12.50;99.90;;;;;;5053467;28;20475;-61
2021/05/22 02:22:49;;;;;;;2.60;0.90;;;12.70;99.90;;;;;;5053477;28;20813;-61
2021/05/22 02:25:16;;;;;;;1.43;0.90;;;12.80;99.90;;;;;;5053548;28;20454;-61
2021/05/22 02:27:42;;;;;;;1.30;0.90;;;12.90;99.90;;;;;;5053301;28;20399;-60
2021/05/22 02:30:10;;;;;;;1.30;1.13;;;12.90;99.90;;;;;;5052299;28;20445;-61
2021/05/22 02:32:48;;;;;;;3.27;0.90;;;13.00;99.90;;;;;;5053061;28;20487;-61
2021/05/22 02:35:15;;;;;;;3.00;1.20;;;12.70;99.90;;;;;;5053744;28;20378;-61
2021/05/22 02:37:41;;;;;;;1.80;1.10;;;12.40;99.90;;;;;;5053917;28;20400;-60
2021/05/22 02:40:20;;;;;;;1.50;1.03;;;11.90;99.90;;;;;;5053047;28;21034;-61
2021/05/22 02:42:59;;;;;;;3.17;1.10;;;11.50;99.90;;;;;;5053452;28;20507;-61
2021/05/22 02:45:27;;;;;;;3.57;1.17;;;11.30;99.90;;;;;;5053125;28;20963;-61
2021/05/22 02:47:57;;;;;;;0.87;0.70;;;11.40;99.90;;;;;;5053176;28;20408;-61
2021/05/22 02:50:23;;;;;;;3.03;0.93;;;11.30;99.90;;;;;;5051097;28;20417;-61
2021/05/22 02:52:51;;;;;;;1.80;1.07;;;11.20;99.90;;;;;;5052999;28;20505;-61
2021/05/22 02:55:16;;;;;;;1.33;0.83;;;11.20;99.90;;;;;;5053396;28;20796;-61
2021/05/22 02:57:43;;;;;;;1.43;1.00;;;11.30;99.90;;;;;;5053036;28;20408;-60
2021/05/22 03:00:10;;;;;;;2.60;1.10;;;11.30;99.90;;;;;;5068605;28;20194;-60
2021/05/22 03:02:37;;;;;;;2.17;0.70;;;11.20;99.90;;;;;;5073034;28;20435;-61
2021/05/22 03:05:04;;;;;;;2.03;0.90;;;11.20;99.90;;;;;;5073472;28;20925;-61
2021/05/22 03:07:30;;;;;;;2.17;1.23;;;11.20;99.90;;;;;;5066074;28;20396;-61
2021/05/22 03:09:56;;;;;;;1.50;0.90;;;11.20;99.90;;;;;;5052870;28;20436;-60
2021/05/22 03:12:32;;;;;;;1.77;0.83;;;11.20;99.90;;;;;;5052772;28;20525;-59
2021/05/22 03:14:58;;;;;;;2.73;1.00;;;11.20;99.90;;;;;;5063342;28;20174;-59
2021/05/22 03:17:23;;;;;;;1.60;1.10;;;11.30;99.90;;;;;;5054939;28;20409;-59
2021/05/22 03:19:49;;;;;;;2.00;1.50;;;11.30;99.90;;;;;;5052588;28;20237;-60
2021/05/22 03:22:14;;;;;;;1.43;1.10;;;11.20;99.90;;;;;;5052650;28;20174;-58
2021/05/22 03:24:40;;;;;;;1.30;1.00;;;11.30;99.90;;;;;;5053070;28;20170;-60
2021/05/22 03:27:06;;;;;;;1.93;0.90;;;11.20;99.90;;;;;;5052636;28;20178;-59
2021/05/22 03:29:32;;;;;;;1.87;1.20;;;11.10;99.90;;;;;;5049476;28;20698;-60
2021/05/22 03:31:58;;;;;;;4.23;1.33;;;11.10;99.90;;;;;;5052415;28;20408;-60
2021/05/22 03:34:23;;;;;;;1.53;1.20;;;11.00;99.90;;;;;;5052874;28;20169;-60
2021/05/22 03:36:49;;;;;;;3.23;1.50;;;11.00;99.90;;;;;;5052854;28;20267;-60
2021/05/22 03:39:14;;;;;;;2.67;1.07;;;10.90;99.90;;;;;;5034940;28;20652;-60
2021/05/22 03:41:40;;;;;;;1.63;1.10;;;10.90;99.90;;;;;;5059839;28;20560;-59
2021/05/22 03:44:06;;;;;;;1.67;1.23;;;10.80;99.90;;;;;;5076225;28;20169;-60
2021/05/22 03:46:31;;;;;;;5.87;1.30;;;10.90;99.90;;;;;;5065667;28;20170;-60
2021/05/22 03:48:57;;;;;;;3.20;1.23;;;11.00;99.90;;;;;;5056598;28;20194;-60
2021/05/22 03:51:23;;;;;;;1.20;1.00;;;11.10;99.90;;;;;;5056358;28;20174;-60
2021/05/22 03:53:48;;;;;;;2.43;1.10;;;11.00;99.90;;;;;;5056270;28;20174;-59
2021/05/22 03:56:14;;;;;;;3.13;2.10;;;11.10;99.90;;;;;;5056499;28;20604;-60
2021/05/22 03:58:40;;;;;;;2.20;0.90;;;11.00;99.90;;;;;;5059139;28;20604;-59
2021/05/22 04:01:05;;;;;;;1.47;1.07;;;11.10;99.90;;;;;;5075889;28;20224;-60
2021/05/22 04:03:31;;;;;;;3.93;1.10;;;11.20;99.90;;;;;;5076227;28;20162;-60
2021/05/22 04:05:57;;;;;;;1.30;1.00;;;11.20;99.90;;;;;;5076020;28;20172;-60
2021/05/22 04:08:22;;;;;;;3.87;1.20;;;11.30;99.90;;;;;;5072646;28;20658;-59
2021/05/22 04:10:48;;;;;;;3.57;1.20;;;11.30;99.90;;;;;;5055678;28;20586;-59
2021/05/22 04:13:14;;;;;;;2.60;0.83;;;11.20;99.90;;;;;;5056321;28;20171;-58
2021/05/22 04:15:40;;;;;;;2.77;1.00;;;11.20;99.90;;;;;;5055791;28;20265;-61
2021/05/22 04:18:08;;;;;;;1.60;1.20;;;11.30;99.90;;;;;;5055811;28;20631;-60
2021/05/22 04:20:34;;;;;;;1.40;1.03;;;11.30;99.90;;;;;;5055786;28;20536;-61
2021/05/22 04:23:00;;;;;;;1.93;1.20;;;11.40;99.90;;;;;;5055783;28;20437;-60
2021/05/22 04:25:25;;;;;;;3.13;1.10;;;11.40;99.90;;;;;;5055648;28;20170;-61
2021/05/22 04:27:51;;;;;;;5.97;1.27;;;11.40;99.90;;;;;;5055482;28;20184;-61
2021/05/22 04:30:17;;;;;;;4.83;1.33;;;11.50;99.90;;;;;;5055767;28;20539;-61
2021/05/22 04:32:42;;;;;;;1.73;0.83;;;11.50;99.90;;;;;;5075365;28;20170;-61
2021/05/22 04:35:08;;;;;;;1.30;0.90;;;11.00;99.90;;;;;;5075610;28;20415;-61
2021/05/22 04:37:34;;;;;;;0.97;0.73;;;10.90;99.90;;;;;;5075547;28;20174;-60
2021/05/22 04:40:00;;;;;;;1.30;0.90;;;10.80;99.90;;;;;;5075207;28;20956;-61
2021/05/22 04:42:27;;;;;;;3.13;1.20;;;10.80;99.90;;;;;;5075939;28;20170;-61
2021/05/22 04:44:52;;;;;;;1.37;0.80;;;10.70;99.90;;;;;;5075552;28;20688;-61
2021/05/22 04:47:18;;;;;;;1.50;1.00;;;10.70;99.90;;;;;;5040230;28;20414;-60
2021/05/22 04:49:44;;;;;;;1.77;0.97;;;10.80;99.90;;;;;;5053634;28;20195;-61
2021/05/22 04:52:09;;;;;;;2.47;0.93;;;10.90;99.90;;;;;;5055007;28;20646;-61
2021/05/22 04:54:35;;;;;;;1.17;0.80;;;10.80;99.90;;;;;;5054244;28;20174;-61
2021/05/22 04:57:00;;;;;;;3.17;1.20;;;10.80;99.90;;;;;;5054843;28;20179;-61
2021/05/22 04:59:26;;;;;;;3.10;1.13;;;10.90;99.90;;;;;;5054688;28;20273;-60
2021/05/22 05:01:52;;;;;;;1.30;1.00;;;11.00;99.90;;;;;;5055208;28;20542;-61
2021/05/22 05:04:17;;;;;;;1.10;0.80;;;11.20;99.90;;;;;;5054920;28;20191;-61
2021/05/22 05:06:43;;;;;;;1.63;0.90;;;11.10;99.90;;;;;;5055234;28;20179;-60
2021/05/22 05:09:09;;;;;;;1.23;0.70;;;11.10;99.90;;;;;;5054890;28;20265;-61
2021/05/22 05:11:35;;;;;;;1.80;1.07;;;11.20;99.90;;;;;;5054721;28;20194;-61
2021/05/22 05:14:00;;;;;;;5.50;1.07;;;11.20;99.90;;;;;;5054391;28;20209;-61
2021/05/22 05:16:28;;;;;;;2.73;1.03;;;11.10;99.90;;;;;;5054582;28;20170;-61
2021/05/22 05:18:54;;;;;;;1.13;0.77;;;11.20;99.90;;;;;;5060070;28;20189;-61
2021/05/22 05:21:19;;;;;;;1.70;1.10;;;11.20;99.90;;;;;;5074622;28;20450;-61
2021/05/22 05:23:46;;;;;;;1.93;1.10;;;11.50;99.90;;;;;;5063376;28;20436;-61
2021/05/22 05:26:11;;;;;;;1.33;0.90;;;11.70;99.90;;;;;;5051905;28;20262;-58
2021/05/22 05:28:37;;;;;;;1.90;0.70;;;11.70;99.90;;;;;;5034897;28;20544;-61
2021/05/22 05:31:02;;;;;;;1.70;0.80;;;11.90;99.90;;;;;;5054440;28;20212;-61
2021/05/22 05:33:28;;;;;;;1.50;0.80;;;11.90;99.90;;;;;;5054521;28;20186;-60
2021/05/22 05:35:54;;;;;;;2.60;1.30;;;12.00;99.90;;;;;;5054428;28;20601;-61
2021/05/22 05:38:20;;;;;;;1.63;1.30;;;12.00;99.90;;;;;;5054310;28;20421;-61
2021/05/22 05:40:46;;;;;;;1.20;0.80;;;12.10;99.90;;;;;;5054357;28;20198;-59
2021/05/22 05:43:13;;;;;;;1.70;1.10;;;12.10;99.90;;;;;;5054031;28;20184;-59
2021/05/22 05:45:40;;;;;;;1.63;1.00;;;12.20;99.90;;;;;;5054248;28;20166;-60
2021/05/22 05:48:07;;;;;;;1.87;1.20;;;12.10;99.90;;;;;;5053763;28;20406;-59
2021/05/22 05:50:33;;;;;;;6.10;1.80;;;12.20;99.90;;;;;;5054128;28;20416;-60
2021/05/22 05:52:59;;;;;;;2.10;0.90;;;12.40;99.90;;;;;;5054373;28;20557;-59
2021/05/22 05:55:25;;;;;;;3.00;1.10;;;12.60;99.90;;;;;;5054431;28;20463;-61
2021/05/22 05:57:51;;;;;;;2.87;0.90;;;12.70;99.90;;;;;;5053870;28;20823;-61
2021/05/22 06:00:17;;;;;;;1.77;1.10;;;12.70;99.90;;;;;;5051283;28;20276;-60
2021/05/22 06:02:42;;;;;;;2.10;1.20;;;12.70;99.90;;;;;;5053506;28;20927;-59
2021/05/22 06:05:09;;;;;;;4.33;1.50;;;12.70;99.90;;;;;;5053950;28;20495;-61
2021/05/22 06:07:34;;;;;;;2.73;1.20;;;12.70;99.90;;;;;;5036273;28;20163;-60
2021/05/22 06:10:00;;;;;;;1.63;1.10;;;12.70;99.90;;;;;;5069368;28;20436;-61
2021/05/22 06:12:26;;;;;;;5.67;1.00;;;12.70;99.90;;;;;;5073539;28;20260;-60
2021/05/22 06:14:56;;;;;;;1.67;1.00;;;12.70;99.90;;;;;;5073517;28;20458;-58
2021/05/22 06:17:22;;;;;;;2.43;1.33;;;12.80;99.90;;;;;;5055941;28;20409;-61
2021/05/22 06:19:48;;;;;;;4.60;1.30;;;12.60;99.90;;;;;;5066603;28;20430;-60
2021/05/22 06:22:13;;;;;;;1.93;1.00;;;12.70;99.90;;;;;;5073895;28;20860;-60
2021/05/22 06:24:39;;;;;;;5.73;1.20;;;12.70;99.90;;;;;;5073682;28;20198;-61
2021/05/22 06:27:05;;;;;;;1.60;1.20;;;12.90;99.90;;;;;;5073634;28;20245;-60
2021/05/22 06:29:31;;;;;;;2.70;1.23;;;12.90;99.90;;;;;;5064197;28;20988;-60
2021/05/22 06:31:56;;;;;;;2.87;1.20;;;12.90;99.90;;;;;;5053567;28;20166;-61
2021/05/22 06:34:22;;;;;;;4.60;1.27;;;13.00;99.90;;;;;;5053384;28;20167;-61
2021/05/22 06:36:49;;;;;;;3.10;1.70;;;13.10;99.90;;;;;;5053424;28;20163;-60
2021/05/22 06:39:14;;;;;;;5.53;1.60;;;13.30;99.90;;;;;;5049325;28;20181;-61
2021/05/22 06:41:40;;;;;;;6.57;1.40;;;13.30;99.90;;;;;;5054923;28;20517;-61
2021/05/22 06:44:07;;;;;;;1.53;1.00;;;13.20;99.90;;;;;;5052981;28;20171;-60
2021/05/22 06:49:04;;;;;;;3.80;1.50;;;13.20;99.90;;;;;;5055617;28;20436;-61
2021/05/22 06:51:30;;;;;;;2.27;1.20;;;13.20;99.90;;;;;;5054321;28;20398;-61
2021/05/22 06:53:55;;;;;;;3.60;1.30;;;13.40;99.90;;;;;;5053754;28;20167;-61
2021/05/22 06:56:21;;;;;;;2.07;1.33;;;13.50;99.90;;;;;;5053941;28;20164;-60
2021/05/22 06:58:47;;;;;;;4.60;1.80;;;13.60;99.90;;;;;;5052801;28;20202;-61
2021/05/22 07:01:12;;;;;;;6.23;1.37;;;13.70;99.90;;;;;;5035759;28;20204;-61
2021/05/22 07:03:38;;;;;;;3.93;1.53;;;13.60;99.90;;;;;;5053926;28;20171;-57
2021/05/22 07:06:04;;;;;;;3.43;1.73;;;13.80;99.90;;;;;;5053165;28;20167;-57
2021/05/22 07:08:30;;;;;;;4.67;1.63;;;13.80;99.90;;;;;;5072285;28;20195;-56
2021/05/22 07:10:55;;;;;;;7.07;1.70;;;13.80;99.90;;;;;;5073971;28;20419;-58
2021/05/22 07:13:22;;;;;;;4.27;1.40;;;13.80;99.90;;;;;;5073105;28;20692;-56
2021/05/22 07:15:48;;;;;;;3.80;1.50;;;14.00;99.90;;;;;;5071004;28;20174;-56
2021/05/22 07:18:14;;;;;;;3.20;1.17;;;14.10;99.90;;;;;;5056827;28;20421;-56
2021/05/22 07:20:39;;;;;;;3.00;1.27;;;14.30;99.90;;;;;;5056049;28;20452;-58
2021/05/22 07:23:05;;;;;;;3.73;1.67;;;14.10;99.90;;;;;;5056885;28;20409;-60
2021/05/22 07:25:31;;;;;;;8.37;1.50;;;14.00;99.90;;;;;;5056809;28;20163;-57
2021/05/22 07:27:56;;;;;;;4.53;1.80;;;13.90;99.90;;;;;;5057872;28;20174;-57
2021/05/22 07:30:22;;;;;;;5.03;1.30;;;13.70;99.90;;;;;;5081332;22;20233;-59
2021/05/22 07:32:48;;;;;;;2.60;1.57;;;13.70;99.90;;;;;;5056014;28;20198;-60
2021/05/22 07:35:15;;;;;;;2.30;1.27;;;13.90;99.90;;;;;;5056268;28;20391;-58
2021/05/22 07:37:41;;;;;;;4.20;1.40;;;13.80;99.90;;;;;;5056473;28;20161;-59
2021/05/22 07:40:09;;;;;;;3.43;1.63;;;13.80;99.90;;;;;;5056088;28;20445;-58
2021/05/22 07:42:35;;;;;;;5.17;1.80;;;14.00;99.90;;;;;;5038351;28;20412;-60
2021/05/22 07:45:03;;;;;;;4.10;1.37;;;14.00;99.90;;;;;;5056270;28;20491;-59
2021/05/22 07:47:28;;;;;;;1.93;1.20;;;13.90;99.90;;;;;;5037011;28;20827;-59
2021/05/22 07:49:54;;;;;;;5.90;1.63;;;14.00;99.90;;;;;;5055768;28;20441;-59
2021/05/22 07:52:21;;;;;;;4.03;1.60;;;14.30;99.90;;;;;;5056017;28;20162;-59
2021/05/22 07:54:47;;;;;;;5.80;1.63;;;14.50;99.90;;;;;;5056171;28;20172;-59
2021/05/22 07:57:14;;;;;;;3.67;1.63;;;14.40;99.90;;;;;;5038327;28;20430;-60
2021/05/22 07:59:40;;;;;;;2.67;0.90;;;14.30;99.90;;;;;;5047644;28;20994;-59
2021/05/22 08:02:07;;;;;;;3.53;1.20;;;14.40;99.90;;;;;;5056377;28;20422;-59
2021/05/22 08:04:33;;;;;;;2.30;1.30;;;14.50;99.90;;;;;;5055626;28;20406;-59
2021/05/22 08:06:58;;;;;;;4.20;1.47;;;14.80;99.90;;;;;;5055289;28;20855;-60
2021/05/22 08:09:24;;;;;;;4.33;1.50;;;14.90;99.90;;;;;;5055933;28;20424;-59
2021/05/22 08:11:50;;;;;;;5.50;1.87;;;14.70;99.60;;;;;;5055457;28;20172;-59
2021/05/22 08:14:16;;;;;;;2.77;1.37;;;14.50;99.60;;;;;;5047345;28;20178;-58
2021/05/22 08:16:43;;;;;;;1.97;1.30;;;14.40;99.40;;;;;;5050811;28;20186;-59
2021/05/22 08:19:10;;;;;;;3.27;1.50;;;14.40;99.90;;;;;;5075759;28;20832;-59
2021/05/22 08:21:36;;;;;;;3.90;1.50;;;14.30;99.00;;;;;;5075328;28;20541;-59
2021/05/22 08:24:02;;;;;;;3.07;1.40;;;14.50;99.80;;;;;;5075655;28;20441;-57
2021/05/22 08:26:28;;;;;;;3.70;1.63;;;14.60;99.10;;;;;;5075554;28;20539;-54
2021/05/22 08:28:54;;;;;;;3.90;1.60;;;14.70;99.10;;;;;;5068577;28;20563;-52
2021/05/22 08:31:21;;;;;;;4.17;1.43;;;14.70;98.90;;;;;;5055325;28;20165;-54
2021/05/22 08:33:47;;;;;;;4.30;1.30;;;14.60;98.20;;;;;;5055229;28;20403;-52
2021/05/22 08:36:13;;;;;;;5.30;1.80;;;15.00;97.20;;;;;;5055245;28;20494;-51
2021/05/22 08:38:39;;;;;;;2.73;1.30;;;15.00;96.80;;;;;;5029840;28;20506;-51
2021/05/22 08:41:06;;;;;;;2.33;1.20;;;15.10;97.40;;;;;;5056523;28;20443;-52
2021/05/22 08:43:33;;;;;;;2.90;1.10;;;15.10;96.20;;;;;;5057568;28;20450;-52
2021/05/22 08:45:58;;;;;;;3.47;1.20;;;15.10;95.70;;;;;;5051104;28;20459;-51
2021/05/22 08:48:24;;;;;;;1.57;0.80;;;15.00;95.40;;;;;;5054765;28;20844;-55
2021/05/22 08:50:50;;;;;;;2.97;1.10;;;15.00;95.50;;;;;;5055262;28;20185;-55
2021/05/22 08:53:16;;;;;;;3.40;1.10;;;15.20;95.70;;;;;;5054778;28;20498;-56
2021/05/22 08:55:42;;;;;;;3.40;1.20;;;15.60;96.30;;;;;;5057231;28;20211;-55
2021/05/22 08:58:08;;;;;;;1.87;1.30;;;15.80;95.30;;;;;;5074592;28;20185;-56
2021/05/22 09:00:40;;;;;;;4.53;1.47;;;15.70;94.10;;;;;;5054736;28;20209;-54
2021/05/22 09:03:09;;;;;;;2.60;1.23;;;15.70;94.10;;;;;;5054687;28;20397;-55
2021/05/22 09:05:35;;;;;;;4.40;1.40;;;15.60;94.60;;;;;;5054991;28;20491;-55
2021/05/22 09:08:05;;;;;;;3.10;1.20;;;15.80;94.10;;;;;;5054306;28;20498;-55
2021/05/22 09:10:33;;;;;;;2.43;1.37;;;15.90;93.00;;;;;;5054569;28;20422;-53
2021/05/22 09:13:11;;;;;;;2.30;0.90;;;15.80;94.00;;;;;;5054546;28;20461;-54
2021/05/22 09:15:38;;;;;;;1.63;1.07;;;15.90;92.90;;;;;;5054468;28;20424;-54
2021/05/22 09:18:13;;;;;;;1.63;1.10;;;16.10;93.20;;;;;;5054490;28;20428;-54
2021/05/22 09:20:49;;;;;;;2.00;1.10;;;16.10;92.00;;;;;;5060545;28;20961;-56
2021/05/22 09:23:20;;;;;;;1.80;1.00;;;16.10;91.90;;;;;;5074739;28;20399;-55
2021/05/22 09:25:51;;;;;;;2.13;0.90;;;16.10;91.40;;;;;;5063432;28;20399;-56
2021/05/22 09:28:20;;;;;;;1.50;0.90;;;16.20;91.40;;;;;;5054075;28;20749;-56
2021/05/22 09:30:49;;;;;;;2.80;1.23;;;16.00;90.50;;;;;;5047810;28;21039;-55
2021/05/22 09:33:20;;;;;;;2.33;1.10;;;16.10;91.30;;;;;;5053966;28;20413;-54
2021/05/22 09:35:51;;;;;;;1.30;1.10;;;16.30;91.40;;;;;;5064474;28;20444;-51
2021/05/22 09:38:17;;;;;;;3.13;1.40;;;16.30;90.10;;;;;;5067269;28;20823;-54
2021/05/22 09:40:43;;;;;;;2.23;0.80;;;16.40;90.10;;;;;;5054078;28;20888;-55
2021/05/22 09:43:09;;;;;;;2.27;1.50;;;16.70;90.00;;;;;;5053591;28;20491;-56
2021/05/22 09:45:42;;;;;;;2.50;1.30;;;16.80;89.90;;;;;;5054051;28;20188;-52
2021/05/22 09:48:16;;;;;;;2.13;1.20;;;16.60;88.70;;;;;;5065835;28;20411;-55
2021/05/22 09:50:48;;;;;;;2.17;1.00;;;16.70;90.10;;;;;;5073797;28;20449;-53
2021/05/22 09:53:35;;;;;;;2.43;1.20;;;16.90;89.30;;;;;;5073694;28;20484;-54
2021/05/22 09:56:21;;;;;;;3.43;0.87;;;17.20;87.60;;;;;;5073727;28;20896;-55
2021/05/22 09:59:01;;;;;;;1.30;0.90;;;17.50;87.00;;;;;;5068505;28;20443;-56
2021/05/22 10:01:30;;;;;;;2.63;0.90;;;17.80;84.80;;;;;;5053854;28;20447;-55
2021/05/22 10:04:15;;;;;;;3.33;1.10;;;17.80;84.70;;;;;;5053636;28;20451;-53
2021/05/22 10:06:42;;;;;;;2.90;1.53;;;17.30;83.20;;;;;;5053807;28;20725;-55
2021/05/22 10:09:16;;;;;;;1.90;0.87;;;17.50;87.60;;;;;;5045827;28;20436;-55
2021/05/22 10:12:04;;;;;;;4.50;1.07;;;17.50;85.10;;;;;;5052500;28;20820;-55
2021/05/22 10:14:40;;;;;;;3.30;1.10;;;18.10;86.10;;;;;;5053328;28;20432;-56
2021/05/22 10:17:07;;;;;;;2.77;1.30;;;18.60;82.70;;;;;;5048250;28;20440;-55
2021/05/22 10:19:34;;;;;;;1.40;0.87;;;18.90;85.40;;;;;;5053342;28;20845;-56
2021/05/22 10:22:01;;;;;;;2.93;1.20;;;18.80;82.70;;;;;;5052759;28;20452;-54
2021/05/22 10:24:27;;;;;;;2.37;0.90;;;19.10;78.90;;;;;;5053101;28;20417;-54
2021/05/22 10:26:54;;;;;;;3.13;1.27;;;19.30;82.40;;;;;;5053199;28;20409;-55
2021/05/22 10:29:21;;;;;;;2.30;1.17;;;18.80;78.50;;;;;;5052246;28;20503;-54
2021/05/22 10:31:47;;;;;;;3.37;1.20;;;18.80;81.40;;;;;;5052331;28;20421;-52
2021/05/22 10:34:18;;;;;;;1.97;1.00;;;19.10;79.40;;;;;;5052868;28;20919;-52
2021/05/22 10:37:04;;;;;;;2.30;1.00;;;18.90;79.30;;;;;;5053488;28;20754;-56
2021/05/22 10:39:40;;;;;;;1.67;0.93;;;18.90;80.40;;;;;;5052284;28;20444;-52
2021/05/22 10:42:09;;;;;;;1.47;1.00;;;18.40;79.70;;;;;;5052955;28;20436;-56
2021/05/22 10:44:38;;;;;;;2.00;1.20;;;18.30;75.90;;;;;;5052625;28;20397;-52
2021/05/22 10:47:09;;;;;;;2.13;1.30;;;18.00;76.30;;;;;;5051267;28;20463;-59
2021/05/22 10:49:49;;;;;;;2.90;1.40;;;18.30;78.90;;;;;;5049255;28;20565;-55
2021/05/22 10:52:18;;;;;;;2.30;1.47;;;18.10;75.90;;;;;;5052900;28;20401;-56
2021/05/22 10:55:07;;;;;;;2.20;1.00;;;18.40;78.70;;;;;;5065495;28;20428;-54
2021/05/22 10:57:57;;;;;;;2.83;1.13;;;18.20;75.60;;;;;;5073131;28;20388;-51
2021/05/22 11:00:26;;;;;;;2.00;1.10;;;17.80;76.80;;;;;;5054071;28;20459;-53
2021/05/22 11:02:58;;;;;;;3.90;1.43;;;18.00;78.10;;;;;;5052809;28;20405;-54
2021/05/22 11:05:27;;;;;;;2.40;1.30;;;18.00;76.70;;;;;;5052699;28;20378;-52
2021/05/22 11:08:05;;;;;;;1.60;1.00;;;18.00;73.30;;;;;;5048240;28;20413;-55
2021/05/22 11:10:40;;;;;;;2.60;1.00;;;18.20;71.90;;;;;;5047085;28;20791;-50
2021/05/22 11:13:21;;;;;;;1.83;0.80;;;18.60;69.90;;;;;;5052003;28;20413;-52
2021/05/22 11:15:52;;;;;;;2.70;1.00;;;18.50;67.50;;;;;;5052840;28;20811;-50
2021/05/22 11:18:20;;;;;;;1.70;0.90;;;18.30;66.60;;;;;;5052481;28;20407;-50
2021/05/22 11:21:08;;;;;;;1.80;0.90;;;18.10;66.70;;;;;;5051861;28;22229;-52
2021/05/22 11:24:01;;;;;;;1.63;0.83;;;17.90;69.00;;;;;;5052688;28;20455;-51
2021/05/22 11:26:53;;;;;;;3.90;0.90;;;18.00;67.00;;;;;;5052831;28;20507;-51
2021/05/22 11:29:20;;;;;;;1.90;1.30;;;18.20;67.90;;;;;;5051004;28;20979;-52
2021/05/22 11:31:46;;;;;;;3.47;1.20;;;19.50;67.80;;;;;;5052147;28;20409;-55
2021/05/22 11:34:24;;;;;;;1.63;1.17;;;19.90;65.40;;;;;;5051783;28;20412;-53
2021/05/22 11:37:10;;;;;;;1.63;1.10;;;19.60;66.80;;;;;;5052548;28;20273;-50
2021/05/22 11:39:42;;;;;;;2.63;0.70;;;20.30;62.20;;;;;;5048770;28;20511;-50
2021/05/22 11:42:30;;;;;;;1.53;0.90;;;21.40;62.20;;;;;;5051876;28;20409;-53
2021/05/22 11:44:58;;;;;;;1.50;0.83;;;21.90;57.50;;;;;;5050734;28;20454;-57
2021/05/22 11:47:33;;;;;;;1.37;1.00;;;23.10;55.00;;;;;;5051510;28;20455;-55
2021/05/22 11:49:59;;;;;;;1.90;1.00;;;22.80;53.50;;;;;;5050939;28;20787;-54
2021/05/22 11:52:30;;;;;;;2.07;1.10;;;22.70;52.00;;;;;;5052170;28;20756;-53
2021/05/22 11:54:56;;;;;;;3.03;1.30;;;22.10;53.20;;;;;;5051395;28;20777;-54
2021/05/22 11:57:22;;;;;;;1.50;0.90;;;20.70;56.40;;;;;;5051016;28;20424;-53
2021/05/22 11:59:48;;;;;;;2.30;0.80;;;20.90;57.60;;;;;;5049945;28;20425;-54
2021/05/22 12:02:33;;;;;;;4.07;0.93;;;21.80;57.20;;;;;;5053833;28;20638;-55
2021/05/22 12:04:59;;;;;;;2.27;1.00;;;21.10;55.50;;;;;;5054708;28;20623;-54
2021/05/22 12:07:24;;;;;;;2.67;1.30;;;22.40;56.20;;;;;;5053957;28;20504;-54
2021/05/22 12:09:50;;;;;;;3.10;1.20;;;23.50;53.10;;;;;;5054407;28;20277;-54
2021/05/22 12:12:15;;;;;;;2.03;1.07;;;24.20;51.60;;;;;;5054238;28;20178;-55
2021/05/22 12:14:43;;;;;;;1.37;0.80;;;24.80;49.70;;;;;;5054971;28;20628;-56
2021/05/22 12:17:10;;;;;;;3.03;1.00;;;24.40;49.20;;;;;;5054575;28;20182;-56
2021/05/22 12:19:40;;;;;;;1.83;0.80;;;24.30;50.40;;;;;;5053798;28;20520;-54
2021/05/22 12:22:07;;;;;;;1.27;0.70;;;23.60;48.80;;;;;;5037024;28;20856;-54
2021/05/22 12:24:33;;;;;;;3.10;1.20;;;24.20;51.50;;;;;;5053914;28;20421;-51
2021/05/22 12:26:59;;;;;;;2.00;0.80;;;24.50;49.20;;;;;;5054070;28;20427;-56
2021/05/22 12:29:27;;;;;;;1.90;1.10;;;25.70;47.80;;;;;;5053501;28;20256;-53
2021/05/22 12:31:59;;;;;;;1.57;0.80;;;26.80;46.70;;;;;;5054590;28;20425;-55
2021/05/22 12:34:31;;;;;;;2.43;1.30;;;26.60;48.40;;;;;;5049196;28;20423;-55
2021/05/22 12:37:00;;;;;;;2.03;1.00;;;24.80;47.60;;;;;;5054430;28;20511;-55
2021/05/22 12:39:36;;;;;;;2.00;1.33;;;23.70;48.40;;;;;;5053710;28;20445;-56
2021/05/22 12:42:21;;;;;;;2.13;1.07;;;22.60;49.10;;;;;;5054230;28;20455;-55
2021/05/22 12:44:52;;;;;;;2.07;1.23;;;22.90;51.80;;;;;;5054172;28;20821;-56
2021/05/22 12:47:21;;;;;;;2.07;0.90;;;22.40;50.20;;;;;;5055152;28;20421;-56
2021/05/22 12:49:58;;;;;;;3.60;1.00;;;22.00;50.40;;;;;;5047318;28;20448;-54
2021/05/22 12:52:26;;;;;;;1.80;1.17;;;21.40;52.80;;;;;;5047206;28;20972;-56
2021/05/22 12:54:52;;;;;;;2.27;1.00;;;21.10;51.60;;;;;;5054020;28;20413;-56